createdAt,value
2023-05-15T00:02:18.972Z,7.05
2023-05-15T00:04:48.809Z,7.60
2023-05-15T00:07:18.490Z,7.35
2023-05-15T00:09:48.223Z,7.55
2023-05-15T00:12:17.895Z,7.13
2023-05-15T00:14:50.199Z,7.60
2023-05-15T00:17:19.945Z,7.15
2023-05-15T00:19:49.605Z,7.50
2023-05-15T00:22:19.352Z,6.60
2023-05-15T00:24:49.005Z,7.73
2023-05-15T00:27:18.809Z,7.40
2023-05-15T00:29:51.107Z,7.40
2023-05-15T00:32:20.875Z,8.05
2023-05-15T00:34:50.616Z,7.20
2023-05-15T00:37:20.411Z,7.55
2023-05-15T00:39:50.073Z,7.88
2023-05-15T00:42:20.246Z,7.73
2023-05-15T00:44:52.626Z,7.30
2023-05-15T00:47:23.331Z,7.55
2023-05-15T00:49:53.070Z,8.00
2023-05-15T00:52:23.422Z,7.17
2023-05-15T00:54:53.144Z,7.80
2023-05-15T00:57:23.936Z,6.72
2023-05-15T00:59:57.548Z,7.47
2023-05-15T01:02:27.617Z,8.10
2023-05-15T01:04:57.385Z,8.43
2023-05-15T01:07:27.091Z,7.78
2023-05-15T01:09:56.929Z,8.00
2023-05-15T01:12:27.177Z,7.60
2023-05-15T01:14:59.724Z,8.27
2023-05-15T01:17:30.385Z,7.75
2023-05-15T01:20:00.853Z,8.35
2023-05-15T01:22:47.987Z,7.60
2023-05-15T01:25:46.500Z,8.90
2023-05-15T01:28:22.588Z,8.70
2023-05-15T01:30:53.295Z,8.00
2023-05-15T01:33:26.125Z,8.07
2023-05-15T01:36:01.024Z,7.93
2023-05-15T01:38:35.715Z,8.07
2023-05-15T01:41:11.966Z,8.10
2023-05-15T01:43:48.480Z,8.80
2023-05-15T01:46:20.496Z,9.40
2023-05-15T01:48:51.257Z,9.00
2023-05-15T01:51:22.584Z,9.23
2023-05-15T01:53:52.575Z,9.18
2023-05-15T01:56:25.723Z,9.77
2023-05-15T01:59:00.271Z,10.20
2023-05-15T02:01:32.953Z,10.25
2023-05-15T02:04:03.199Z,9.30
2023-05-15T02:06:34.767Z,10.13
2023-05-15T02:09:05.501Z,10.10
2023-05-15T02:11:35.536Z,9.60
2023-05-15T02:14:08.882Z,9.45
2023-05-15T02:16:38.850Z,9.07
2023-05-15T02:19:10.482Z,10.45
2023-05-15T02:21:40.337Z,11.20
2023-05-15T02:24:10.264Z,10.40
2023-05-15T02:26:49.452Z,12.55
2023-05-15T02:29:25.051Z,11.85
2023-05-15T02:32:03.159Z,11.00
2023-05-15T02:34:40.790Z,9.50
2023-05-15T02:37:13.940Z,10.50
2023-05-15T02:39:46.648Z,8.90
2023-05-15T02:42:17.198Z,8.65
2023-05-15T02:44:51.559Z,9.02
2023-05-15T02:47:21.680Z,9.52
2023-05-15T02:49:51.432Z,11.10
2023-05-15T02:52:21.096Z,11.83
2023-05-15T02:54:50.814Z,13.82
2023-05-15T02:57:20.557Z,14.93
2023-05-15T02:59:53.048Z,15.98
2023-05-15T03:02:22.792Z,14.13
2023-05-15T03:04:52.468Z,16.70
2023-05-15T03:07:22.185Z,16.50
2023-05-15T03:09:51.951Z,19.67
2023-05-15T03:12:21.637Z,23.75
2023-05-15T03:14:53.898Z,24.43
2023-05-15T03:17:23.766Z,29.48
2023-05-15T03:19:53.499Z,32.05
2023-05-15T03:22:23.136Z,18.40
2023-05-15T03:24:52.826Z,18.50
2023-05-15T03:27:22.495Z,27.42
2023-05-15T03:29:54.730Z,29.58
2023-05-15T03:32:24.492Z,25.42
2023-05-15T03:34:54.141Z,40.47
2023-05-15T03:37:23.843Z,40.05
2023-05-15T03:39:53.491Z,41.87
2023-05-15T03:42:23.840Z,43.13
2023-05-15T03:44:56.317Z,45.15
2023-05-15T03:47:26.189Z,44.15
2023-05-15T03:49:55.946Z,43.15
2023-05-15T03:52:25.725Z,44.15
2023-05-15T03:54:55.420Z,42.63
2023-05-15T03:57:25.092Z,50.93
2023-05-15T03:59:57.360Z,57.92
2023-05-15T04:02:27.260Z,57.92
2023-05-15T04:04:56.995Z,56.40
2023-05-15T04:07:26.734Z,56.97
2023-05-15T04:09:56.395Z,70.10
2023-05-15T04:12:28.310Z,67.72
2023-05-15T04:15:02.518Z,67.68
2023-05-15T04:17:32.228Z,73.90
2023-05-15T04:20:01.972Z,70.88
2023-05-15T04:22:31.707Z,67.55
2023-05-15T04:25:01.415Z,69.60
2023-05-15T04:27:31.314Z,69.72
2023-05-15T04:30:04.085Z,67.60
2023-05-15T04:32:34.275Z,69.15
2023-05-15T04:35:05.650Z,62.65
2023-05-15T04:37:35.528Z,61.47
2023-05-15T04:40:06.599Z,58.92
2023-05-15T04:42:38.443Z,56.75
2023-05-15T04:45:12.139Z,56.75
2023-05-15T04:47:41.986Z,60.72
2023-05-15T04:50:12.359Z,58.35
2023-05-15T04:52:43.182Z,56.03
2023-05-15T04:55:13.025Z,54.78
2023-05-15T04:57:42.659Z,56.17
2023-05-15T05:00:16.934Z,58.88
2023-05-15T05:02:46.732Z,57.28
2023-05-15T05:05:17.467Z,59.08
2023-05-15T05:07:47.199Z,60.70
2023-05-15T05:10:16.927Z,66.37
2023-05-15T05:12:46.574Z,61.35
2023-05-15T05:15:19.167Z,65.13
2023-05-15T05:17:49.247Z,67.75
2023-05-15T05:20:19.077Z,67.07
2023-05-15T05:22:48.755Z,66.78
2023-05-15T05:25:18.508Z,67.95
2023-05-15T05:27:48.171Z,67.53
2023-05-15T05:30:20.999Z,63.08
2023-05-15T05:32:50.794Z,65.10
2023-05-15T05:35:20.558Z,62.55
2023-05-15T05:37:50.278Z,64.90
2023-05-15T05:40:20.380Z,65.85
2023-05-15T05:42:50.193Z,65.00
2023-05-15T05:45:22.506Z,65.88
2023-05-15T05:47:52.223Z,65.32
2023-05-15T05:50:22.067Z,62.80
2023-05-15T05:52:51.905Z,67.00
2023-05-15T05:55:21.696Z,65.70
2023-05-15T05:57:51.416Z,65.97
2023-05-15T06:00:24.313Z,64.90
2023-05-15T06:02:59.335Z,67.65
2023-05-15T06:05:29.333Z,64.85
2023-05-15T06:08:01.338Z,69.32
2023-05-15T06:10:31.264Z,70.20
2023-05-15T06:13:01.274Z,66.85
2023-05-15T06:15:33.524Z,70.47
2023-05-15T06:18:03.346Z,69.67
2023-05-15T06:20:33.058Z,68.82
2023-05-15T06:23:02.799Z,74.37
2023-05-15T06:25:32.933Z,71.25
2023-05-15T06:28:02.904Z,71.90
2023-05-15T06:30:35.247Z,76.18
2023-05-15T06:33:05.000Z,77.85
2023-05-15T06:35:34.680Z,76.35
2023-05-15T06:38:04.710Z,72.60
2023-05-15T06:40:34.503Z,76.50
2023-05-15T06:43:04.253Z,74.32
2023-05-15T06:45:36.522Z,72.47
2023-05-15T06:48:06.379Z,72.47
2023-05-15T06:50:36.112Z,73.38
2023-05-15T06:53:06.817Z,67.60
2023-05-15T06:55:38.321Z,64.90
2023-05-15T06:58:08.155Z,69.13
2023-05-15T07:00:40.542Z,68.90
2023-05-15T07:03:10.380Z,65.65
2023-05-15T07:05:40.069Z,64.32
2023-05-15T07:08:09.818Z,63.55
2023-05-15T07:10:39.638Z,62.42
2023-05-15T07:13:09.323Z,65.70
2023-05-15T07:15:42.124Z,62.55
2023-05-15T07:18:11.992Z,59.70
2023-05-15T07:20:41.729Z,60.22
2023-05-15T07:23:11.453Z,57.17
2023-05-15T07:25:41.153Z,57.78
2023-05-15T07:28:11.416Z,58.10
2023-05-15T07:30:43.736Z,58.92
2023-05-15T07:33:13.563Z,56.33
2023-05-15T07:35:43.366Z,58.05
2023-05-15T07:38:13.686Z,58.15
2023-05-15T07:40:43.501Z,57.33
2023-05-15T07:43:13.232Z,56.47
2023-05-15T07:45:45.567Z,56.22
2023-05-15T07:48:19.622Z,56.70
2023-05-15T07:50:51.240Z,56.17
2023-05-15T07:53:20.946Z,55.67
2023-05-15T07:55:50.656Z,52.70
2023-05-15T07:58:20.753Z,50.33
2023-05-15T08:00:53.117Z,49.08
2023-05-15T08:03:23.090Z,46.28
2023-05-15T08:05:53.062Z,44.92
2023-05-15T08:08:22.880Z,44.65
2023-05-15T08:10:52.604Z,44.38
2023-05-15T08:13:22.279Z,42.58
2023-05-15T08:15:54.613Z,39.38
2023-05-15T08:18:24.302Z,37.87
2023-05-15T08:20:54.115Z,38.53
2023-05-15T08:23:23.841Z,36.35
2023-05-15T08:25:53.666Z,36.10
2023-05-15T08:28:23.298Z,35.03
2023-05-15T08:30:55.581Z,34.50
2023-05-15T08:33:25.385Z,36.63
2023-05-15T08:35:55.097Z,35.53
2023-05-15T08:38:25.328Z,39.33
2023-05-15T08:40:56.082Z,40.63
2023-05-15T08:43:25.910Z,39.88
2023-05-15T08:45:58.581Z,39.38
2023-05-15T08:48:31.132Z,38.65
2023-05-15T08:51:01.754Z,34.08
2023-05-15T08:53:32.359Z,36.22
2023-05-15T08:56:02.093Z,36.95
2023-05-15T08:58:32.058Z,37.25
2023-05-15T09:01:04.334Z,38.65
2023-05-15T09:03:34.145Z,38.47
2023-05-15T09:06:04.562Z,40.30
2023-05-15T09:08:35.468Z,42.50
2023-05-15T09:11:08.070Z,41.95
2023-05-15T09:13:37.824Z,39.07
2023-05-15T09:16:10.695Z,40.28
2023-05-15T09:18:41.975Z,38.65
2023-05-15T09:21:27.798Z,39.50
2023-05-15T09:23:58.513Z,40.95
2023-05-15T09:26:28.263Z,37.53
2023-05-15T09:29:05.169Z,40.83
2023-05-15T09:31:38.019Z,38.45
2023-05-15T09:34:09.742Z,34.50
2023-05-15T09:36:39.420Z,34.75
2023-05-15T09:39:12.272Z,30.90
2023-05-15T09:41:45.907Z,28.55
2023-05-15T09:44:22.705Z,25.00
2023-05-15T09:46:55.798Z,25.75
2023-05-15T09:49:25.732Z,23.27
2023-05-15T09:51:55.432Z,22.65
2023-05-15T09:54:27.462Z,22.55
2023-05-15T09:56:57.265Z,21.47
2023-05-15T09:59:27.263Z,22.15
2023-05-15T10:01:59.748Z,20.63
2023-05-15T10:04:29.693Z,20.58
2023-05-15T10:07:00.590Z,19.85
2023-05-15T10:09:34.046Z,19.00
2023-05-15T10:12:03.879Z,17.70
2023-05-15T10:14:33.762Z,17.42
2023-05-15T10:17:06.428Z,18.40
2023-05-15T10:19:44.019Z,18.45
2023-05-15T10:22:23.572Z,18.17
2023-05-15T10:24:57.943Z,16.80
2023-05-15T10:27:28.106Z,16.40
2023-05-15T10:29:57.970Z,16.65
2023-05-15T10:32:30.611Z,16.80
2023-05-15T10:35:00.954Z,16.42
2023-05-15T10:37:31.782Z,15.48
2023-05-15T10:40:01.503Z,14.00
2023-05-15T10:42:32.501Z,13.57
2023-05-15T10:45:03.283Z,12.83
2023-05-15T10:47:36.520Z,13.70
2023-05-15T10:50:07.755Z,13.25
2023-05-15T10:52:39.360Z,12.68
2023-05-15T10:55:11.431Z,12.60
2023-05-15T10:57:41.284Z,12.13
2023-05-15T11:00:29.241Z,10.15
2023-05-15T11:03:02.433Z,10.75
2023-05-15T11:05:32.193Z,7.65
2023-05-15T11:08:29.245Z,8.48
2023-05-15T11:10:59.235Z,9.68
2023-05-15T11:13:28.946Z,9.40
2023-05-15T11:15:58.700Z,7.15
2023-05-15T11:18:31.135Z,6.65
2023-05-15T11:21:18.697Z,7.45
2023-05-15T11:23:50.228Z,8.30
2023-05-15T11:26:20.176Z,7.40
2023-05-15T11:28:49.983Z,8.50
2023-05-15T11:31:20.249Z,8.90
2023-05-15T11:33:53.482Z,9.38
2023-05-15T11:36:26.865Z,9.90
2023-05-15T11:38:56.674Z,9.63
2023-05-15T11:41:34.338Z,10.13
2023-05-15T11:44:04.373Z,11.63
2023-05-15T11:46:35.037Z,13.57
2023-05-15T11:49:07.507Z,13.70
2023-05-15T11:51:43.173Z,10.98
2023-05-15T11:54:14.241Z,8.98
2023-05-15T11:56:46.732Z,8.50
2023-05-15T11:59:20.043Z,8.20
2023-05-15T12:01:50.044Z,7.45
2023-05-15T12:04:22.742Z,7.00
2023-05-15T12:06:52.750Z,7.80
2023-05-15T12:09:27.415Z,6.70
2023-05-15T12:11:58.011Z,6.28
2023-05-15T12:14:30.849Z,6.20
2023-05-15T12:17:03.079Z,6.05
2023-05-15T12:19:37.090Z,5.80
2023-05-15T12:22:08.547Z,5.70
2023-05-15T12:24:41.836Z,5.00
2023-05-15T12:27:11.875Z,5.50
2023-05-15T12:29:42.421Z,5.13
2023-05-15T12:32:12.413Z,4.90
2023-05-15T12:34:44.895Z,4.83
2023-05-15T12:37:16.106Z,4.60
2023-05-15T12:39:56.674Z,4.32
2023-05-15T12:42:26.607Z,4.17
2023-05-15T12:44:57.895Z,5.20
2023-05-15T12:47:28.941Z,5.57
2023-05-15T12:50:01.461Z,5.30
2023-05-15T12:52:31.777Z,6.28
2023-05-15T12:55:03.871Z,6.55
2023-05-15T12:57:33.698Z,5.53
2023-05-15T13:00:04.439Z,7.00
2023-05-15T13:02:34.273Z,7.13
2023-05-15T13:05:08.064Z,7.15
2023-05-15T13:07:37.810Z,7.70
2023-05-15T13:10:12.015Z,6.13
2023-05-15T13:12:42.907Z,6.50
2023-05-15T13:15:25.683Z,8.23
2023-05-15T13:17:58.449Z,7.63
2023-05-15T13:20:32.224Z,6.50
2023-05-15T13:23:02.020Z,7.20
2023-05-15T13:25:32.923Z,6.10
2023-05-15T13:28:04.316Z,6.80
2023-05-15T13:30:35.474Z,7.28
2023-05-15T13:33:05.426Z,8.05
2023-05-15T13:35:38.545Z,7.90
2023-05-15T13:38:11.375Z,7.68
2023-05-15T13:40:41.558Z,7.35
2023-05-15T13:43:11.405Z,7.70
2023-05-15T13:45:41.081Z,9.77
2023-05-15T13:48:10.917Z,13.07
2023-05-15T13:50:43.380Z,13.23
2023-05-15T13:53:16.756Z,13.93
2023-05-15T13:55:47.434Z,14.20
2023-05-15T13:58:17.726Z,13.45
2023-05-15T14:00:47.542Z,13.13
2023-05-15T14:03:17.308Z,11.93
2023-05-15T14:05:49.694Z,13.25
2023-05-15T14:08:19.641Z,15.85
2023-05-15T14:10:49.468Z,16.20
2023-05-15T14:13:19.196Z,17.40
2023-05-15T14:15:48.897Z,15.75
2023-05-15T14:18:18.658Z,18.20
2023-05-15T14:20:50.958Z,17.10
2023-05-15T14:23:20.778Z,17.17
2023-05-15T14:25:50.504Z,18.30
2023-05-15T14:28:20.193Z,18.33
2023-05-15T14:30:49.934Z,17.60
2023-05-15T14:33:20.177Z,16.10
2023-05-15T14:35:52.513Z,15.90
2023-05-15T14:38:22.278Z,16.25
2023-05-15T14:40:52.065Z,16.10
2023-05-15T14:43:21.836Z,17.23
2023-05-15T14:45:51.618Z,16.50
2023-05-15T14:48:22.503Z,15.45
2023-05-15T14:50:55.566Z,16.85
2023-05-15T14:53:25.633Z,17.25
2023-05-15T14:55:55.437Z,15.35
2023-05-15T14:58:25.169Z,15.30
2023-05-15T15:00:54.923Z,14.53
2023-05-15T15:03:25.766Z,14.70
2023-05-15T15:06:00.052Z,13.80
2023-05-15T15:08:29.761Z,13.82
2023-05-15T15:11:00.165Z,16.00
2023-05-15T15:13:30.071Z,15.43
2023-05-15T15:16:00.227Z,16.45
2023-05-15T15:18:30.497Z,15.55
2023-05-15T15:21:03.885Z,15.65
2023-05-15T15:23:34.375Z,15.30
2023-05-15T15:26:04.678Z,15.25
2023-05-15T15:28:34.774Z,14.40
2023-05-15T15:31:04.669Z,14.43
2023-05-15T15:33:34.454Z,13.80
2023-05-15T15:36:07.073Z,15.45
2023-05-15T15:38:36.867Z,14.87
2023-05-15T15:41:07.668Z,16.10
2023-05-15T15:43:37.460Z,16.63
2023-05-15T15:46:07.407Z,15.48
2023-05-15T15:48:37.339Z,15.90
2023-05-15T15:51:09.867Z,14.02
2023-05-15T15:53:41.115Z,13.90
2023-05-15T15:56:11.027Z,12.68
2023-05-15T15:58:40.697Z,14.88
2023-05-15T16:01:10.466Z,13.47
2023-05-15T16:03:40.300Z,16.92
2023-05-15T16:06:12.643Z,15.48
2023-05-15T16:08:42.326Z,18.60
2023-05-15T16:11:12.045Z,19.30
2023-05-15T16:13:41.824Z,17.58
2023-05-15T16:16:11.599Z,18.75
2023-05-15T16:18:41.331Z,18.20
2023-05-15T16:21:14.083Z,18.30
2023-05-15T16:23:44.065Z,20.02
2023-05-15T16:26:13.854Z,18.83
2023-05-15T16:28:43.614Z,19.92
2023-05-15T16:31:13.675Z,18.10
2023-05-15T16:33:43.768Z,19.80
2023-05-15T16:36:16.174Z,19.77
2023-05-15T16:38:46.160Z,19.60
2023-05-15T16:41:15.849Z,18.80
2023-05-15T16:43:45.609Z,15.70
2023-05-15T16:46:15.265Z,15.75
2023-05-15T16:48:44.951Z,14.50
2023-05-15T16:51:18.505Z,14.00
2023-05-15T16:53:48.187Z,16.80
2023-05-15T16:56:17.845Z,17.15
2023-05-15T16:58:47.541Z,15.20
2023-05-15T17:01:17.255Z,15.32
2023-05-15T17:03:47.144Z,14.85
2023-05-15T17:06:19.530Z,14.77
2023-05-15T17:08:49.225Z,15.30
2023-05-15T17:11:18.954Z,14.57
2023-05-15T17:13:48.770Z,15.13
2023-05-15T17:16:18.712Z,15.77
2023-05-15T17:18:48.464Z,15.45
2023-05-15T17:21:20.767Z,15.82
2023-05-15T17:23:50.518Z,16.55
2023-05-15T17:26:20.148Z,17.00
2023-05-15T17:28:49.891Z,17.90
2023-05-15T17:31:21.123Z,18.00
2023-05-15T17:33:51.539Z,18.25
2023-05-15T17:36:24.148Z,18.73
2023-05-15T17:38:54.161Z,20.23
2023-05-15T17:41:24.711Z,19.55
2023-05-15T17:43:54.940Z,18.45
2023-05-15T17:46:24.672Z,19.50
2023-05-15T17:48:54.413Z,21.70
2023-05-15T17:51:26.643Z,19.20
2023-05-15T17:53:56.342Z,19.50
2023-05-15T17:56:26.837Z,21.00
2023-05-15T17:58:56.716Z,18.63
2023-05-15T18:01:26.389Z,19.50
2023-05-15T18:03:56.100Z,17.40
2023-05-15T18:06:28.919Z,17.80
2023-05-15T18:08:58.691Z,18.15
2023-05-15T18:11:28.334Z,16.95
2023-05-15T18:13:58.155Z,17.63
2023-05-15T18:16:28.105Z,17.50
2023-05-15T18:18:57.973Z,15.60
2023-05-15T18:21:30.734Z,16.57
2023-05-15T18:24:00.549Z,15.63
2023-05-15T18:26:31.326Z,15.05
2023-05-15T18:29:01.092Z,14.40
2023-05-15T18:31:30.794Z,14.40
2023-05-15T18:34:00.581Z,15.15
2023-05-15T18:36:32.918Z,15.63
2023-05-15T18:39:02.792Z,16.15
2023-05-15T18:41:32.902Z,16.27
2023-05-15T18:44:03.158Z,17.25
2023-05-15T18:46:34.468Z,16.50
2023-05-15T18:49:04.329Z,18.33
2023-05-15T18:51:36.554Z,17.80
2023-05-15T18:54:06.701Z,19.50
2023-05-15T18:56:36.402Z,17.35
2023-05-15T18:59:06.030Z,17.92
2023-05-15T19:01:35.775Z,19.70
2023-05-15T19:04:06.603Z,18.20
2023-05-15T19:06:39.339Z,17.92
2023-05-15T19:09:09.544Z,19.48
2023-05-15T19:11:39.222Z,17.08
2023-05-15T19:14:08.897Z,18.80
2023-05-15T19:16:38.973Z,17.45
2023-05-15T19:19:08.773Z,16.97
2023-05-15T19:21:42.039Z,17.67
2023-05-15T19:24:12.079Z,16.98
2023-05-15T19:26:41.776Z,15.95
2023-05-15T19:29:11.428Z,15.48
2023-05-15T19:31:41.325Z,16.83
2023-05-15T19:34:11.048Z,14.57
2023-05-15T19:36:43.308Z,15.50
2023-05-15T19:39:13.572Z,14.90
2023-05-15T19:41:43.613Z,16.43
2023-05-15T19:44:13.816Z,24.52
2023-05-15T19:46:45.276Z,17.38
2023-05-15T19:49:16.182Z,22.88
2023-05-15T19:51:48.572Z,15.88
2023-05-15T19:54:18.862Z,17.30
2023-05-15T19:56:48.575Z,15.15
2023-05-15T19:59:18.223Z,20.05
2023-05-15T20:01:47.873Z,14.13
2023-05-15T20:04:17.608Z,14.30
2023-05-15T20:06:49.903Z,13.95
2023-05-15T20:09:19.625Z,14.00
2023-05-15T20:11:49.266Z,13.88
2023-05-15T20:14:19.094Z,14.80
2023-05-15T20:16:49.102Z,13.40
2023-05-15T20:19:22.426Z,13.00
2023-05-15T20:21:54.816Z,12.65
2023-05-15T20:24:26.295Z,13.50
2023-05-15T20:26:56.175Z,13.13
2023-05-15T20:29:25.886Z,13.00
2023-05-15T20:31:55.676Z,11.50
2023-05-15T20:34:25.502Z,11.32
2023-05-15T20:36:58.041Z,11.17
2023-05-15T20:39:27.820Z,10.95
2023-05-15T20:41:57.664Z,10.10
2023-05-15T20:44:27.485Z,10.20
2023-05-15T20:46:57.149Z,9.02
2023-05-15T20:49:26.813Z,9.55
2023-05-15T20:51:59.126Z,10.27
2023-05-15T20:54:29.047Z,8.88
2023-05-15T20:56:58.755Z,9.90
2023-05-15T20:59:28.427Z,8.70
2023-05-15T21:01:58.113Z,9.60
2023-05-15T21:04:27.792Z,8.65
2023-05-15T21:07:00.469Z,9.00
2023-05-15T21:09:30.200Z,9.00
2023-05-15T21:11:59.879Z,8.85
2023-05-15T21:14:29.621Z,9.83
2023-05-15T21:16:59.376Z,9.23
2023-05-15T21:19:29.148Z,8.90
2023-05-15T21:22:01.454Z,9.10
2023-05-15T21:24:31.159Z,9.23
2023-05-15T21:27:00.815Z,9.30
2023-05-15T21:29:30.559Z,8.98
2023-05-15T21:32:00.302Z,9.40
2023-05-15T21:34:29.969Z,8.40
2023-05-15T21:37:02.228Z,8.93
2023-05-15T21:39:31.899Z,8.88
2023-05-15T21:42:01.581Z,8.60
2023-05-15T21:44:31.261Z,8.30
2023-05-15T21:47:01.097Z,8.50
2023-05-15T21:49:30.860Z,8.40
2023-05-15T21:52:03.305Z,8.95
2023-05-15T21:54:33.075Z,8.70
2023-05-15T21:57:02.743Z,8.35
2023-05-15T21:59:32.470Z,9.02
2023-05-15T22:02:02.165Z,9.48
2023-05-15T22:04:32.612Z,8.60
2023-05-15T22:07:04.885Z,8.63
2023-05-15T22:09:34.593Z,8.43
2023-05-15T22:12:04.593Z,9.88
2023-05-15T22:14:35.081Z,9.20
2023-05-15T22:17:04.950Z,9.25
2023-05-15T22:19:34.592Z,9.45
2023-05-15T22:22:07.333Z,11.00
2023-05-15T22:24:37.143Z,13.52
2023-05-15T22:27:07.124Z,15.25
2023-05-15T22:29:36.888Z,15.00
2023-05-15T22:32:06.948Z,16.52
2023-05-15T22:34:36.696Z,18.65
2023-05-15T22:37:09.013Z,19.17
2023-05-15T22:39:38.795Z,18.63
2023-05-15T22:42:09.606Z,17.95
2023-05-15T22:44:39.358Z,16.30
2023-05-15T22:47:09.140Z,13.55
2023-05-15T22:49:38.977Z,11.80
2023-05-15T22:52:13.663Z,10.48
2023-05-15T22:54:43.862Z,10.70
2023-05-15T22:57:13.527Z,10.55
2023-05-15T22:59:44.191Z,10.98
